sensor_id;sensor_type;location;lat;lon;timestamp;P1;durP1;ratioP1;P2;durP2;ratioP2
59790;SDS011;47431;51.640;5.554;2022-09-02T00:03:54;3.25;;;1.60;;
59790;SDS011;47431;51.640;5.554;2022-09-02T00:06:19;6.82;;;1.85;;
59790;SDS011;47431;51.640;5.554;2022-09-02T00:08:45;3.88;;;1.50;;
59790;SDS011;47431;51.640;5.554;2022-09-02T00:11:15;4.47;;;1.88;;
59790;SDS011;47431;51.640;5.554;2022-09-02T00:13:41;5.60;;;2.22;;
59790;SDS011;47431;51.640;5.554;2022-09-02T00:16:07;6.65;;;1.73;;
59790;SDS011;47431;51.640;5.554;2022-09-02T00:18:34;5.80;;;1.70;;
59790;SDS011;47431;51.640;5.554;2022-09-02T00:21:00;7.25;;;1.90;;
59790;SDS011;47431;51.640;5.554;2022-09-02T00:23:25;7.00;;;1.95;;
59790;SDS011;47431;51.640;5.554;2022-09-02T00:25:50;3.20;;;1.17;;
59790;SDS011;47431;51.640;5.554;2022-09-02T00:28:15;11.50;;;2.13;;
59790;SDS011;47431;51.640;5.554;2022-09-02T00:30:41;4.57;;;1.67;;
59790;SDS011;47431;51.640;5.554;2022-09-02T00:33:07;7.03;;;1.80;;
59790;SDS011;47431;51.640;5.554;2022-09-02T00:35:32;4.53;;;2.30;;
59790;SDS011;47431;51.640;5.554;2022-09-02T00:37:58;3.58;;;1.55;;
59790;SDS011;47431;51.640;5.554;2022-09-02T00:40:23;4.70;;;1.80;;
59790;SDS011;47431;51.640;5.554;2022-09-02T00:42:49;7.85;;;2.20;;
59790;SDS011;47431;51.640;5.554;2022-09-02T00:45:15;4.80;;;2.05;;
59790;SDS011;47431;51.640;5.554;2022-09-02T00:47:42;5.65;;;2.10;;
59790;SDS011;47431;51.640;5.554;2022-09-02T00:50:08;4.65;;;1.92;;
59790;SDS011;47431;51.640;5.554;2022-09-02T00:52:41;7.22;;;2.92;;
59790;SDS011;47431;51.640;5.554;2022-09-02T00:57:40;5.72;;;1.95;;
59790;SDS011;47431;51.640;5.554;2022-09-02T01:00:09;11.88;;;2.50;;
59790;SDS011;47431;51.640;5.554;2022-09-02T01:02:36;6.30;;;1.75;;
59790;SDS011;47431;51.640;5.554;2022-09-02T01:05:02;5.03;;;1.80;;
59790;SDS011;47431;51.640;5.554;2022-09-02T01:07:29;3.85;;;1.95;;
59790;SDS011;47431;51.640;5.554;2022-09-02T01:09:55;9.00;;;2.08;;
59790;SDS011;47431;51.640;5.554;2022-09-02T01:12:21;4.50;;;1.80;;
59790;SDS011;47431;51.640;5.554;2022-09-02T01:14:46;5.60;;;1.80;;
59790;SDS011;47431;51.640;5.554;2022-09-02T01:17:12;5.32;;;1.98;;
59790;SDS011;47431;51.640;5.554;2022-09-02T01:19:39;5.72;;;2.20;;
59790;SDS011;47431;51.640;5.554;2022-09-02T01:22:14;3.80;;;1.85;;
59790;SDS011;47431;51.640;5.554;2022-09-02T01:24:39;6.57;;;2.15;;
59790;SDS011;47431;51.640;5.554;2022-09-02T01:27:04;7.05;;;2.28;;
59790;SDS011;47431;51.640;5.554;2022-09-02T01:29:29;7.07;;;2.13;;
59790;SDS011;47431;51.640;5.554;2022-09-02T01:31:55;10.52;;;1.98;;
59790;SDS011;47431;51.640;5.554;2022-09-02T01:34:20;4.88;;;2.30;;
59790;SDS011;47431;51.640;5.554;2022-09-02T01:36:45;3.92;;;1.90;;
59790;SDS011;47431;51.640;5.554;2022-09-02T01:39:11;4.88;;;2.22;;
59790;SDS011;47431;51.640;5.554;2022-09-02T01:41:36;4.65;;;2.30;;
59790;SDS011;47431;51.640;5.554;2022-09-02T01:44:03;7.88;;;2.60;;
59790;SDS011;47431;51.640;5.554;2022-09-02T01:46:28;4.50;;;2.17;;
59790;SDS011;47431;51.640;5.554;2022-09-02T01:48:53;3.85;;;1.80;;
59790;SDS011;47431;51.640;5.554;2022-09-02T01:51:19;6.70;;;2.30;;
59790;SDS011;47431;51.640;5.554;2022-09-02T01:53:44;10.98;;;3.30;;
59790;SDS011;47431;51.640;5.554;2022-09-02T01:56:10;4.13;;;1.92;;
59790;SDS011;47431;51.640;5.554;2022-09-02T01:58:35;7.88;;;2.25;;
59790;SDS011;47431;51.640;5.554;2022-09-02T02:01:01;7.30;;;1.85;;
59790;SDS011;47431;51.640;5.554;2022-09-02T02:03:27;11.52;;;2.20;;
59790;SDS011;47431;51.640;5.554;2022-09-02T02:05:52;5.15;;;2.30;;
59790;SDS011;47431;51.640;5.554;2022-09-02T02:08:17;5.88;;;2.00;;
59790;SDS011;47431;51.640;5.554;2022-09-02T02:10:42;5.30;;;2.03;;
59790;SDS011;47431;51.640;5.554;2022-09-02T02:13:08;5.00;;;2.15;;
59790;SDS011;47431;51.640;5.554;2022-09-02T02:15:36;9.65;;;2.15;;
59790;SDS011;47431;51.640;5.554;2022-09-02T02:18:01;5.30;;;2.53;;
59790;SDS011;47431;51.640;5.554;2022-09-02T02:20:26;10.07;;;2.15;;
59790;SDS011;47431;51.640;5.554;2022-09-02T02:22:52;7.68;;;2.22;;
59790;SDS011;47431;51.640;5.554;2022-09-02T02:25:17;4.90;;;1.98;;
59790;SDS011;47431;51.640;5.554;2022-09-02T02:27:42;6.68;;;2.33;;
59790;SDS011;47431;51.640;5.554;2022-09-02T02:30:08;4.75;;;2.15;;
59790;SDS011;47431;51.640;5.554;2022-09-02T02:32:34;8.00;;;2.10;;
59790;SDS011;47431;51.640;5.554;2022-09-02T02:34:59;8.95;;;2.03;;
59790;SDS011;47431;51.640;5.554;2022-09-02T02:37:25;5.28;;;2.20;;
59790;SDS011;47431;51.640;5.554;2022-09-02T02:39:50;5.78;;;2.33;;
59790;SDS011;47431;51.640;5.554;2022-09-02T02:42:15;4.22;;;2.10;;
59790;SDS011;47431;51.640;5.554;2022-09-02T02:44:41;6.18;;;2.17;;
59790;SDS011;47431;51.640;5.554;2022-09-02T02:47:07;5.43;;;2.28;;
59790;SDS011;47431;51.640;5.554;2022-09-02T02:49:35;4.95;;;2.28;;
59790;SDS011;47431;51.640;5.554;2022-09-02T02:52:00;4.65;;;2.35;;
59790;SDS011;47431;51.640;5.554;2022-09-02T02:54:26;5.70;;;2.30;;
59790;SDS011;47431;51.640;5.554;2022-09-02T02:56:51;4.65;;;2.00;;
59790;SDS011;47431;51.640;5.554;2022-09-02T02:59:16;7.10;;;2.00;;
59790;SDS011;47431;51.640;5.554;2022-09-02T03:01:41;7.35;;;2.25;;
59790;SDS011;47431;51.640;5.554;2022-09-02T03:04:06;5.15;;;2.00;;
59790;SDS011;47431;51.640;5.554;2022-09-02T03:06:32;7.65;;;2.42;;
59790;SDS011;47431;51.640;5.554;2022-09-02T03:08:57;5.93;;;2.17;;
59790;SDS011;47431;51.640;5.554;2022-09-02T03:11:23;4.97;;;2.00;;
59790;SDS011;47431;51.640;5.554;2022-09-02T03:13:52;8.57;;;2.17;;
59790;SDS011;47431;51.640;5.554;2022-09-02T03:16:17;6.97;;;2.42;;
59790;SDS011;47431;51.640;5.554;2022-09-02T03:18:44;5.05;;;2.00;;
59790;SDS011;47431;51.640;5.554;2022-09-02T03:21:09;4.88;;;2.28;;
59790;SDS011;47431;51.640;5.554;2022-09-02T03:23:35;14.05;;;2.72;;
59790;SDS011;47431;51.640;5.554;2022-09-02T03:26:00;4.68;;;2.05;;
59790;SDS011;47431;51.640;5.554;2022-09-02T03:28:25;5.50;;;1.98;;
59790;SDS011;47431;51.640;5.554;2022-09-02T03:30:51;6.30;;;1.90;;
59790;SDS011;47431;51.640;5.554;2022-09-02T03:33:16;13.10;;;2.53;;
59790;SDS011;47431;51.640;5.554;2022-09-02T03:35:42;14.25;;;2.08;;
59790;SDS011;47431;51.640;5.554;2022-09-02T03:38:08;6.20;;;2.22;;
59790;SDS011;47431;51.640;5.554;2022-09-02T03:40:34;5.55;;;2.50;;
59790;SDS011;47431;51.640;5.554;2022-09-02T03:42:59;10.55;;;2.40;;
59790;SDS011;47431;51.640;5.554;2022-09-02T03:45:24;8.65;;;2.75;;
59790;SDS011;47431;51.640;5.554;2022-09-02T03:47:50;12.65;;;2.60;;
59790;SDS011;47431;51.640;5.554;2022-09-02T03:50:18;5.43;;;2.15;;
59790;SDS011;47431;51.640;5.554;2022-09-02T03:52:44;6.40;;;2.30;;
59790;SDS011;47431;51.640;5.554;2022-09-02T03:55:09;6.50;;;2.22;;
59790;SDS011;47431;51.640;5.554;2022-09-02T03:57:34;4.65;;;2.17;;
59790;SDS011;47431;51.640;5.554;2022-09-02T04:00:00;6.43;;;2.60;;
59790;SDS011;47431;51.640;5.554;2022-09-02T04:02:25;5.18;;;2.20;;
59790;SDS011;47431;51.640;5.554;2022-09-02T04:04:50;5.30;;;2.50;;
59790;SDS011;47431;51.640;5.554;2022-09-02T04:07:16;7.10;;;3.10;;
59790;SDS011;47431;51.640;5.554;2022-09-02T04:09:41;6.70;;;2.30;;
59790;SDS011;47431;51.640;5.554;2022-09-02T04:12:06;11.65;;;3.45;;
59790;SDS011;47431;51.640;5.554;2022-09-02T04:14:31;8.13;;;2.50;;
59790;SDS011;47431;51.640;5.554;2022-09-02T04:16:56;5.53;;;2.70;;
59790;SDS011;47431;51.640;5.554;2022-09-02T04:19:22;5.45;;;2.30;;
59790;SDS011;47431;51.640;5.554;2022-09-02T04:21:47;9.25;;;3.10;;
59790;SDS011;47431;51.640;5.554;2022-09-02T04:24:12;5.47;;;2.97;;
59790;SDS011;47431;51.640;5.554;2022-09-02T04:26:37;5.88;;;3.35;;
59790;SDS011;47431;51.640;5.554;2022-09-02T04:29:03;5.90;;;2.40;;
59790;SDS011;47431;51.640;5.554;2022-09-02T04:31:28;7.93;;;2.80;;
59790;SDS011;47431;51.640;5.554;2022-09-02T04:33:55;10.82;;;3.38;;
59790;SDS011;47431;51.640;5.554;2022-09-02T04:36:21;4.93;;;2.90;;
59790;SDS011;47431;51.640;5.554;2022-09-02T04:38:46;5.50;;;2.88;;
59790;SDS011;47431;51.640;5.554;2022-09-02T04:41:13;6.50;;;2.65;;
59790;SDS011;47431;51.640;5.554;2022-09-02T04:43:38;8.95;;;3.10;;
59790;SDS011;47431;51.640;5.554;2022-09-02T04:46:05;7.78;;;2.97;;
59790;SDS011;47431;51.640;5.554;2022-09-02T04:48:31;7.65;;;3.15;;
59790;SDS011;47431;51.640;5.554;2022-09-02T04:50:56;7.88;;;3.35;;
59790;SDS011;47431;51.640;5.554;2022-09-02T04:53:22;8.73;;;3.08;;
59790;SDS011;47431;51.640;5.554;2022-09-02T04:55:47;6.13;;;3.05;;
59790;SDS011;47431;51.640;5.554;2022-09-02T04:58:12;7.82;;;3.33;;
59790;SDS011;47431;51.640;5.554;2022-09-02T05:00:38;8.15;;;3.38;;
59790;SDS011;47431;51.640;5.554;2022-09-02T05:03:04;13.20;;;3.50;;
59790;SDS011;47431;51.640;5.554;2022-09-02T05:05:30;6.03;;;3.05;;
59790;SDS011;47431;51.640;5.554;2022-09-02T05:07:55;6.20;;;3.28;;
59790;SDS011;47431;51.640;5.554;2022-09-02T05:10:22;8.73;;;3.03;;
59790;SDS011;47431;51.640;5.554;2022-09-02T05:12:47;7.90;;;3.60;;
59790;SDS011;47431;51.640;5.554;2022-09-02T05:15:13;8.18;;;3.50;;
59790;SDS011;47431;51.640;5.554;2022-09-02T05:17:38;10.77;;;3.03;;
59790;SDS011;47431;51.640;5.554;2022-09-02T05:20:04;6.95;;;2.85;;
59790;SDS011;47431;51.640;5.554;2022-09-02T05:22:30;8.80;;;3.47;;
59790;SDS011;47431;51.640;5.554;2022-09-02T05:24:55;8.10;;;2.97;;
59790;SDS011;47431;51.640;5.554;2022-09-02T05:27:20;6.30;;;2.83;;
59790;SDS011;47431;51.640;5.554;2022-09-02T05:29:47;7.78;;;3.25;;
59790;SDS011;47431;51.640;5.554;2022-09-02T05:32:12;6.28;;;2.80;;
59790;SDS011;47431;51.640;5.554;2022-09-02T05:34:37;12.98;;;3.30;;
59790;SDS011;47431;51.640;5.554;2022-09-02T05:37:03;8.25;;;3.08;;
59790;SDS011;47431;51.640;5.554;2022-09-02T05:39:29;8.23;;;2.75;;
59790;SDS011;47431;51.640;5.554;2022-09-02T05:41:54;9.30;;;2.53;;
59790;SDS011;47431;51.640;5.554;2022-09-02T05:44:20;7.80;;;3.10;;
59790;SDS011;47431;51.640;5.554;2022-09-02T05:46:45;8.57;;;3.08;;
59790;SDS011;47431;51.640;5.554;2022-09-02T05:49:10;7.35;;;3.10;;
59790;SDS011;47431;51.640;5.554;2022-09-02T05:54:11;6.88;;;2.72;;
59790;SDS011;47431;51.640;5.554;2022-09-02T05:56:38;7.30;;;2.85;;
59790;SDS011;47431;51.640;5.554;2022-09-02T05:59:03;7.85;;;2.75;;
59790;SDS011;47431;51.640;5.554;2022-09-02T06:01:30;9.63;;;3.10;;
59790;SDS011;47431;51.640;5.554;2022-09-02T06:03:56;11.13;;;2.97;;
59790;SDS011;47431;51.640;5.554;2022-09-02T06:06:22;7.68;;;2.80;;
59790;SDS011;47431;51.640;5.554;2022-09-02T06:08:47;6.22;;;2.92;;
59790;SDS011;47431;51.640;5.554;2022-09-02T06:11:13;5.28;;;2.75;;
59790;SDS011;47431;51.640;5.554;2022-09-02T06:13:39;8.25;;;3.45;;
59790;SDS011;47431;51.640;5.554;2022-09-02T06:16:05;5.50;;;2.60;;
59790;SDS011;47431;51.640;5.554;2022-09-02T06:18:33;8.10;;;2.75;;
59790;SDS011;47431;51.640;5.554;2022-09-02T06:20:58;5.40;;;3.00;;
59790;SDS011;47431;51.640;5.554;2022-09-02T06:23:23;9.57;;;2.85;;
59790;SDS011;47431;51.640;5.554;2022-09-02T06:25:49;6.07;;;3.65;;
59790;SDS011;47431;51.640;5.554;2022-09-02T06:28:14;5.35;;;3.13;;
59790;SDS011;47431;51.640;5.554;2022-09-02T06:30:40;12.48;;;3.35;;
59790;SDS011;47431;51.640;5.554;2022-09-02T06:33:06;11.23;;;3.78;;
59790;SDS011;47431;51.640;5.554;2022-09-02T06:35:35;17.48;;;3.58;;
59790;SDS011;47431;51.640;5.554;2022-09-02T06:38:01;6.82;;;2.90;;
59790;SDS011;47431;51.640;5.554;2022-09-02T06:40:26;8.93;;;3.20;;
59790;SDS011;47431;51.640;5.554;2022-09-02T06:42:52;13.68;;;3.65;;
59790;SDS011;47431;51.640;5.554;2022-09-02T06:45:18;12.38;;;3.03;;
59790;SDS011;47431;51.640;5.554;2022-09-02T06:47:43;6.10;;;3.30;;
59790;SDS011;47431;51.640;5.554;2022-09-02T06:50:10;10.43;;;3.38;;
59790;SDS011;47431;51.640;5.554;2022-09-02T06:52:35;6.10;;;3.28;;
59790;SDS011;47431;51.640;5.554;2022-09-02T06:55:00;10.35;;;3.83;;
59790;SDS011;47431;51.640;5.554;2022-09-02T06:57:26;8.52;;;3.30;;
59790;SDS011;47431;51.640;5.554;2022-09-02T06:59:51;12.15;;;3.40;;
59790;SDS011;47431;51.640;5.554;2022-09-02T07:02:16;6.38;;;3.05;;
59790;SDS011;47431;51.640;5.554;2022-09-02T07:04:41;9.48;;;3.65;;
59790;SDS011;47431;51.640;5.554;2022-09-02T07:07:25;5.70;;;3.00;;
59790;SDS011;47431;51.640;5.554;2022-09-02T07:09:51;14.45;;;3.58;;
59790;SDS011;47431;51.640;5.554;2022-09-02T07:12:16;6.38;;;3.08;;
59790;SDS011;47431;51.640;5.554;2022-09-02T07:14:43;6.45;;;3.47;;
59790;SDS011;47431;51.640;5.554;2022-09-02T07:17:09;9.05;;;3.10;;
59790;SDS011;47431;51.640;5.554;2022-09-02T07:19:35;6.90;;;3.47;;
59790;SDS011;47431;51.640;5.554;2022-09-02T07:22:01;6.78;;;2.90;;
59790;SDS011;47431;51.640;5.554;2022-09-02T07:24:26;7.72;;;3.20;;
59790;SDS011;47431;51.640;5.554;2022-09-02T07:26:52;10.05;;;3.08;;
59790;SDS011;47431;51.640;5.554;2022-09-02T07:29:17;6.95;;;2.65;;
59790;SDS011;47431;51.640;5.554;2022-09-02T07:31:43;6.53;;;3.58;;
59790;SDS011;47431;51.640;5.554;2022-09-02T07:34:09;19.60;;;3.50;;
59790;SDS011;47431;51.640;5.554;2022-09-02T07:36:34;12.90;;;3.40;;
59790;SDS011;47431;51.640;5.554;2022-09-02T07:39:00;8.65;;;3.47;;
59790;SDS011;47431;51.640;5.554;2022-09-02T07:41:26;9.27;;;3.40;;
59790;SDS011;47431;51.640;5.554;2022-09-02T07:43:51;10.02;;;3.95;;
59790;SDS011;47431;51.640;5.554;2022-09-02T07:46:17;7.13;;;2.88;;
59790;SDS011;47431;51.640;5.554;2022-09-02T07:48:42;5.80;;;3.05;;
59790;SDS011;47431;51.640;5.554;2022-09-02T07:51:08;7.47;;;3.10;;
59790;SDS011;47431;51.640;5.554;2022-09-02T07:53:34;6.22;;;2.78;;
59790;SDS011;47431;51.640;5.554;2022-09-02T07:56:00;8.52;;;3.53;;
59790;SDS011;47431;51.640;5.554;2022-09-02T07:58:25;15.45;;;3.83;;
59790;SDS011;47431;51.640;5.554;2022-09-02T08:00:51;12.63;;;3.65;;
59790;SDS011;47431;51.640;5.554;2022-09-02T08:03:17;9.45;;;3.47;;
59790;SDS011;47431;51.640;5.554;2022-09-02T08:05:43;9.98;;;3.58;;
59790;SDS011;47431;51.640;5.554;2022-09-02T08:08:10;17.08;;;3.67;;
59790;SDS011;47431;51.640;5.554;2022-09-02T08:10:35;14.23;;;3.88;;
59790;SDS011;47431;51.640;5.554;2022-09-02T08:13:01;13.02;;;4.07;;
59790;SDS011;47431;51.640;5.554;2022-09-02T08:15:27;10.18;;;3.33;;
59790;SDS011;47431;51.640;5.554;2022-09-02T08:17:56;11.80;;;4.28;;
59790;SDS011;47431;51.640;5.554;2022-09-02T08:20:21;5.40;;;3.35;;
59790;SDS011;47431;51.640;5.554;2022-09-02T08:22:46;12.63;;;4.30;;
59790;SDS011;47431;51.640;5.554;2022-09-02T08:25:12;8.25;;;4.03;;
59790;SDS011;47431;51.640;5.554;2022-09-02T08:27:37;9.70;;;4.03;;
59790;SDS011;47431;51.640;5.554;2022-09-02T08:30:03;7.93;;;3.25;;
59790;SDS011;47431;51.640;5.554;2022-09-02T08:32:28;13.57;;;4.55;;
59790;SDS011;47431;51.640;5.554;2022-09-02T08:34:56;9.27;;;3.42;;
59790;SDS011;47431;51.640;5.554;2022-09-02T08:37:22;12.98;;;3.70;;
59790;SDS011;47431;51.640;5.554;2022-09-02T08:39:47;13.15;;;3.55;;
59790;SDS011;47431;51.640;5.554;2022-09-02T08:45:41;11.48;;;3.28;;
59790;SDS011;47431;51.640;5.554;2022-09-02T08:47:42;8.98;;;3.03;;
59790;SDS011;47431;51.640;5.554;2022-09-02T08:50:13;6.63;;;3.08;;
59790;SDS011;47431;51.640;5.554;2022-09-02T08:52:54;11.35;;;3.60;;
59790;SDS011;47431;51.640;5.554;2022-09-02T08:55:22;14.40;;;3.60;;
59790;SDS011;47431;51.640;5.554;2022-09-02T08:57:51;8.23;;;3.30;;
59790;SDS011;47431;51.640;5.554;2022-09-02T09:00:20;9.50;;;3.22;;
59790;SDS011;47431;51.640;5.554;2022-09-02T09:18:16;6.85;;;3.40;;
59790;SDS011;47431;51.640;5.554;2022-09-02T09:20:43;7.22;;;3.75;;
59790;SDS011;47431;51.640;5.554;2022-09-02T09:23:41;16.40;;;4.35;;
59790;SDS011;47431;51.640;5.554;2022-09-02T09:26:07;8.27;;;3.90;;
59790;SDS011;47431;51.640;5.554;2022-09-02T09:28:42;7.82;;;3.53;;
59790;SDS011;47431;51.640;5.554;2022-09-02T09:31:09;14.43;;;4.03;;
59790;SDS011;47431;51.640;5.554;2022-09-02T09:33:35;8.80;;;3.95;;
59790;SDS011;47431;51.640;5.554;2022-09-02T09:36:00;7.17;;;3.17;;
59790;SDS011;47431;51.640;5.554;2022-09-02T09:38:29;8.48;;;3.60;;
59790;SDS011;47431;51.640;5.554;2022-09-02T09:41:11;11.90;;;3.40;;
59790;SDS011;47431;51.640;5.554;2022-09-02T09:43:38;9.38;;;3.97;;
59790;SDS011;47431;51.640;5.554;2022-09-02T09:46:19;5.90;;;3.38;;
59790;SDS011;47431;51.640;5.554;2022-09-02T09:48:48;9.63;;;4.25;;
59790;SDS011;47431;51.640;5.554;2022-09-02T09:51:13;12.98;;;3.92;;
59790;SDS011;47431;51.640;5.554;2022-09-02T09:53:39;11.90;;;3.95;;
59790;SDS011;47431;51.640;5.554;2022-09-02T09:58:46;12.75;;;4.50;;
59790;SDS011;47431;51.640;5.554;2022-09-02T10:03:53;6.55;;;3.65;;
59790;SDS011;47431;51.640;5.554;2022-09-02T10:06:23;12.55;;;4.20;;
59790;SDS011;47431;51.640;5.554;2022-09-02T10:08:50;10.75;;;4.25;;
59790;SDS011;47431;51.640;5.554;2022-09-02T10:11:20;11.40;;;3.53;;
59790;SDS011;47431;51.640;5.554;2022-09-02T10:13:45;9.23;;;3.45;;
59790;SDS011;47431;51.640;5.554;2022-09-02T10:18:56;9.43;;;4.13;;
59790;SDS011;47431;51.640;5.554;2022-09-02T10:21:29;9.15;;;4.32;;
59790;SDS011;47431;51.640;5.554;2022-09-02T10:26:38;6.57;;;2.75;;
59790;SDS011;47431;51.640;5.554;2022-09-02T10:34:25;11.75;;;3.67;;
59790;SDS011;47431;51.640;5.554;2022-09-02T10:39:47;12.65;;;3.45;;
59790;SDS011;47431;51.640;5.554;2022-09-02T10:47:16;7.47;;;3.13;;
59790;SDS011;47431;51.640;5.554;2022-09-02T10:57:44;9.60;;;2.80;;
59790;SDS011;47431;51.640;5.554;2022-09-02T11:00:15;3.72;;;1.95;;
59790;SDS011;47431;51.640;5.554;2022-09-02T11:02:43;7.93;;;2.40;;
59790;SDS011;47431;51.640;5.554;2022-09-02T11:05:44;6.05;;;2.08;;
59790;SDS011;47431;51.640;5.554;2022-09-02T11:10:33;5.20;;;1.85;;
59790;SDS011;47431;51.640;5.554;2022-09-02T11:13:00;5.22;;;2.03;;
59790;SDS011;47431;51.640;5.554;2022-09-02T11:15:35;6.25;;;1.92;;
59790;SDS011;47431;51.640;5.554;2022-09-02T11:18:06;6.70;;;2.25;;
59790;SDS011;47431;51.640;5.554;2022-09-02T11:20:37;6.78;;;2.30;;
59790;SDS011;47431;51.640;5.554;2022-09-02T11:25:38;5.00;;;2.03;;
59790;SDS011;47431;51.640;5.554;2022-09-02T11:28:12;5.40;;;2.22;;
59790;SDS011;47431;51.640;5.554;2022-09-02T11:30:44;8.27;;;2.70;;
59790;SDS011;47431;51.640;5.554;2022-09-02T11:33:34;6.15;;;2.30;;
59790;SDS011;47431;51.640;5.554;2022-09-02T11:36:01;5.00;;;2.58;;
59790;SDS011;47431;51.640;5.554;2022-09-02T11:38:49;9.98;;;2.55;;
59790;SDS011;47431;51.640;5.554;2022-09-02T11:41:30;5.50;;;1.90;;
59790;SDS011;47431;51.640;5.554;2022-09-02T11:54:07;4.80;;;2.25;;
59790;SDS011;47431;51.640;5.554;2022-09-02T11:56:37;6.55;;;1.90;;
59790;SDS011;47431;51.640;5.554;2022-09-02T11:59:04;5.97;;;1.93;;
59790;SDS011;47431;51.640;5.554;2022-09-02T12:01:32;5.80;;;2.10;;
59790;SDS011;47431;51.640;5.554;2022-09-02T12:04:01;6.13;;;2.25;;
59790;SDS011;47431;51.640;5.554;2022-09-02T12:06:27;4.50;;;1.98;;
59790;SDS011;47431;51.640;5.554;2022-09-02T12:11:39;6.20;;;2.00;;
59790;SDS011;47431;51.640;5.554;2022-09-02T12:16:59;5.55;;;2.03;;
59790;SDS011;47431;51.640;5.554;2022-09-02T12:19:27;5.28;;;2.05;;
59790;SDS011;47431;51.640;5.554;2022-09-02T12:27:18;5.40;;;2.30;;
59790;SDS011;47431;51.640;5.554;2022-09-02T12:29:45;4.85;;;2.10;;
59790;SDS011;47431;51.640;5.554;2022-09-02T12:32:10;4.67;;;1.97;;
59790;SDS011;47431;51.640;5.554;2022-09-02T12:37:00;4.33;;;1.97;;
59790;SDS011;47431;51.640;5.554;2022-09-02T12:49:48;4.53;;;2.45;;
59790;SDS011;47431;51.640;5.554;2022-09-02T12:55:48;5.50;;;2.10;;
59790;SDS011;47431;51.640;5.554;2022-09-02T12:57:46;5.35;;;2.25;;
59790;SDS011;47431;51.640;5.554;2022-09-02T13:00:16;4.22;;;1.85;;
59790;SDS011;47431;51.640;5.554;2022-09-02T13:03:11;5.68;;;1.92;;
59790;SDS011;47431;51.640;5.554;2022-09-02T13:08:17;6.43;;;2.00;;
59790;SDS011;47431;51.640;5.554;2022-09-02T13:16:20;4.18;;;1.90;;
59790;SDS011;47431;51.640;5.554;2022-09-02T13:19:10;5.00;;;1.70;;
59790;SDS011;47431;51.640;5.554;2022-09-02T13:32:00;5.35;;;1.77;;
59790;SDS011;47431;51.640;5.554;2022-09-02T13:34:28;6.20;;;2.10;;
59790;SDS011;47431;51.640;5.554;2022-09-02T13:36:55;9.10;;;2.40;;
59790;SDS011;47431;51.640;5.554;2022-09-02T13:39:24;4.53;;;1.83;;
59790;SDS011;47431;51.640;5.554;2022-09-02T13:41:50;6.53;;;1.92;;
59790;SDS011;47431;51.640;5.554;2022-09-02T13:44:23;6.97;;;2.47;;
59790;SDS011;47431;51.640;5.554;2022-09-02T13:46:52;7.78;;;2.17;;
59790;SDS011;47431;51.640;5.554;2022-09-02T13:49:18;4.47;;;1.80;;
59790;SDS011;47431;51.640;5.554;2022-09-02T13:51:44;5.97;;;2.20;;
59790;SDS011;47431;51.640;5.554;2022-09-02T13:54:11;6.90;;;2.08;;
59790;SDS011;47431;51.640;5.554;2022-09-02T13:56:36;9.90;;;1.95;;
59790;SDS011;47431;51.640;5.554;2022-09-02T13:59:01;6.87;;;1.87;;
59790;SDS011;47431;51.640;5.554;2022-09-02T14:03:55;9.18;;;2.83;;
59790;SDS011;47431;51.640;5.554;2022-09-02T14:06:25;3.75;;;1.77;;
59790;SDS011;47431;51.640;5.554;2022-09-02T14:08:53;4.45;;;2.22;;
59790;SDS011;47431;51.640;5.554;2022-09-02T14:11:19;5.40;;;1.60;;
59790;SDS011;47431;51.640;5.554;2022-09-02T14:13:46;4.82;;;1.80;;
59790;SDS011;47431;51.640;5.554;2022-09-02T14:16:22;7.18;;;2.00;;
59790;SDS011;47431;51.640;5.554;2022-09-02T14:19:03;7.65;;;2.40;;
59790;SDS011;47431;51.640;5.554;2022-09-02T14:21:28;8.37;;;1.77;;
59790;SDS011;47431;51.640;5.554;2022-09-02T14:23:54;4.47;;;2.20;;
59790;SDS011;47431;51.640;5.554;2022-09-02T14:26:23;5.43;;;2.30;;
59790;SDS011;47431;51.640;5.554;2022-09-02T14:28:49;5.97;;;2.15;;
59790;SDS011;47431;51.640;5.554;2022-09-02T14:31:22;5.82;;;1.98;;
59790;SDS011;47431;51.640;5.554;2022-09-02T14:33:47;5.47;;;2.38;;
59790;SDS011;47431;51.640;5.554;2022-09-02T14:43:45;6.80;;;2.10;;
59790;SDS011;47431;51.640;5.554;2022-09-02T14:46:53;5.43;;;2.22;;
59790;SDS011;47431;51.640;5.554;2022-09-02T14:51:35;3.38;;;1.70;;
59790;SDS011;47431;51.640;5.554;2022-09-02T14:54:01;4.80;;;2.05;;
59790;SDS011;47431;51.640;5.554;2022-09-02T14:56:43;7.60;;;2.80;;
59790;SDS011;47431;51.640;5.554;2022-09-02T14:59:09;4.90;;;2.25;;
59790;SDS011;47431;51.640;5.554;2022-09-02T15:01:40;7.75;;;2.40;;
59790;SDS011;47431;51.640;5.554;2022-09-02T15:04:07;8.98;;;2.10;;
59790;SDS011;47431;51.640;5.554;2022-09-02T15:06:32;5.95;;;2.45;;
59790;SDS011;47431;51.640;5.554;2022-09-02T15:08:57;4.72;;;1.90;;
59790;SDS011;47431;51.640;5.554;2022-09-02T15:11:23;4.43;;;1.88;;
59790;SDS011;47431;51.640;5.554;2022-09-02T15:13:48;10.98;;;2.40;;
59790;SDS011;47431;51.640;5.554;2022-09-02T15:16:13;6.57;;;2.25;;
59790;SDS011;47431;51.640;5.554;2022-09-02T15:18:39;4.38;;;2.03;;
59790;SDS011;47431;51.640;5.554;2022-09-02T15:21:05;4.43;;;1.63;;
59790;SDS011;47431;51.640;5.554;2022-09-02T15:23:30;6.45;;;2.25;;
59790;SDS011;47431;51.640;5.554;2022-09-02T15:25:55;5.55;;;2.30;;
59790;SDS011;47431;51.640;5.554;2022-09-02T15:28:21;8.40;;;2.10;;
59790;SDS011;47431;51.640;5.554;2022-09-02T15:30:46;5.20;;;2.00;;
59790;SDS011;47431;51.640;5.554;2022-09-02T15:33:11;3.78;;;1.90;;
59790;SDS011;47431;51.640;5.554;2022-09-02T15:35:37;5.45;;;1.90;;
59790;SDS011;47431;51.640;5.554;2022-09-02T15:38:02;8.63;;;2.17;;
59790;SDS011;47431;51.640;5.554;2022-09-02T15:40:28;5.45;;;2.42;;
59790;SDS011;47431;51.640;5.554;2022-09-02T15:42:53;7.32;;;2.30;;
59790;SDS011;47431;51.640;5.554;2022-09-02T15:45:20;5.85;;;2.00;;
59790;SDS011;47431;51.640;5.554;2022-09-02T15:47:45;5.05;;;2.30;;
59790;SDS011;47431;51.640;5.554;2022-09-02T15:50:10;8.40;;;2.40;;
59790;SDS011;47431;51.640;5.554;2022-09-02T15:52:36;4.67;;;1.90;;
59790;SDS011;47431;51.640;5.554;2022-09-02T15:55:01;7.63;;;2.10;;
59790;SDS011;47431;51.640;5.554;2022-09-02T15:57:26;9.87;;;2.23;;
59790;SDS011;47431;51.640;5.554;2022-09-02T15:59:52;6.85;;;2.05;;
59790;SDS011;47431;51.640;5.554;2022-09-02T16:02:17;4.32;;;2.30;;
59790;SDS011;47431;51.640;5.554;2022-09-02T16:04:43;7.70;;;2.80;;
59790;SDS011;47431;51.640;5.554;2022-09-02T16:07:08;5.60;;;2.00;;
59790;SDS011;47431;51.640;5.554;2022-09-02T16:09:33;4.43;;;1.80;;
59790;SDS011;47431;51.640;5.554;2022-09-02T16:11:59;3.83;;;1.88;;
59790;SDS011;47431;51.640;5.554;2022-09-02T16:14:24;5.80;;;2.07;;
59790;SDS011;47431;51.640;5.554;2022-09-02T16:16:50;6.55;;;1.63;;
59790;SDS011;47431;51.640;5.554;2022-09-02T16:19:15;10.00;;;2.53;;
59790;SDS011;47431;51.640;5.554;2022-09-02T16:21:42;5.82;;;2.05;;
59790;SDS011;47431;51.640;5.554;2022-09-02T16:24:08;7.57;;;1.88;;
59790;SDS011;47431;51.640;5.554;2022-09-02T16:26:34;7.90;;;1.75;;
59790;SDS011;47431;51.640;5.554;2022-09-02T16:29:00;6.00;;;2.13;;
59790;SDS011;47431;51.640;5.554;2022-09-02T16:31:27;6.10;;;1.80;;
59790;SDS011;47431;51.640;5.554;2022-09-02T16:33:54;6.53;;;2.55;;
59790;SDS011;47431;51.640;5.554;2022-09-02T16:36:19;4.25;;;2.25;;
59790;SDS011;47431;51.640;5.554;2022-09-02T16:38:44;7.22;;;2.00;;
59790;SDS011;47431;51.640;5.554;2022-09-02T16:41:26;3.85;;;1.52;;
59790;SDS011;47431;51.640;5.554;2022-09-02T16:43:56;7.75;;;2.00;;
59790;SDS011;47431;51.640;5.554;2022-09-02T16:46:21;3.72;;;1.60;;
59790;SDS011;47431;51.640;5.554;2022-09-02T16:48:47;5.55;;;1.65;;
59790;SDS011;47431;51.640;5.554;2022-09-02T16:51:13;4.35;;;1.85;;
59790;SDS011;47431;51.640;5.554;2022-09-02T16:53:38;4.53;;;1.30;;
59790;SDS011;47431;51.640;5.554;2022-09-02T16:56:03;5.57;;;1.73;;